createdAt,value
2017-07-17T00:00:46.336Z,0
2017-07-17T00:01:56.593Z,0
2017-07-17T00:03:07.114Z,0
2017-07-17T00:04:17.065Z,0
2017-07-17T00:05:27.348Z,0
2017-07-17T00:06:37.615Z,0
2017-07-17T00:07:47.891Z,0
2017-07-17T00:08:58.101Z,0
2017-07-17T00:10:08.369Z,0
2017-07-17T00:11:18.660Z,0
2017-07-17T00:12:28.961Z,0
2017-07-17T00:13:39.226Z,0
2017-07-17T00:14:49.765Z,0
2017-07-17T00:16:00.050Z,0
2017-07-17T00:17:10.320Z,0
2017-07-17T00:18:20.261Z,0
2017-07-17T00:19:30.540Z,0
2017-07-17T00:20:41.056Z,0
2017-07-17T00:21:51.023Z,0
2017-07-17T00:23:01.287Z,0
2017-07-17T00:24:11.556Z,0
2017-07-17T00:25:22.024Z,0
2017-07-17T00:26:32.551Z,0
2017-07-17T00:27:42.808Z,0
2017-07-17T00:28:52.755Z,0
2017-07-17T00:30:03.018Z,0
2017-07-17T00:31:13.292Z,0
2017-07-17T00:32:23.870Z,0
2017-07-17T00:33:34.149Z,0
2017-07-17T00:34:44.419Z,0
2017-07-17T00:35:54.370Z,0
2017-07-17T00:37:04.630Z,0
2017-07-17T00:38:15.154Z,0
2017-07-17T00:39:25.434Z,0
2017-07-17T00:40:35.392Z,0
2017-07-17T00:41:45.657Z,0
2017-07-17T00:42:55.920Z,0
2017-07-17T00:44:06.457Z,0
2017-07-17T00:45:16.094Z,0
2017-07-17T00:46:26.053Z,0
2017-07-17T00:47:36.322Z,0
2017-07-17T00:48:46.601Z,0
2017-07-17T00:49:57.140Z,0
2017-07-17T00:51:07.097Z,0
2017-07-17T00:52:17.066Z,0
2017-07-17T00:53:27.344Z,0
2017-07-17T00:54:37.614Z,0
2017-07-17T00:55:48.123Z,0
2017-07-17T00:56:58.378Z,0
2017-07-17T00:58:08.641Z,0
2017-07-17T00:59:18.907Z,0
2017-07-17T01:00:29.170Z,0
2017-07-17T01:01:39.727Z,0
2017-07-17T01:02:49.681Z,0
2017-07-17T01:03:59.960Z,0
2017-07-17T01:05:10.235Z,0
2017-07-17T01:06:20.513Z,0
2017-07-17T01:07:31.037Z,0
2017-07-17T01:08:41.312Z,0
2017-07-17T01:09:51.578Z,0
2017-07-17T01:11:01.534Z,0
2017-07-17T01:12:11.801Z,0
2017-07-17T01:13:22.322Z,0
2017-07-17T01:14:31.950Z,0
2017-07-17T01:15:42.207Z,0
2017-07-17T01:16:52.481Z,0
2017-07-17T01:18:02.770Z,0
2017-07-17T01:19:13.303Z,0
2017-07-17T01:20:23.575Z,0
2017-07-17T01:21:33.849Z,0
2017-07-17T01:22:44.112Z,0
2017-07-17T01:23:54.062Z,0
2017-07-17T01:25:04.576Z,0
2017-07-17T01:26:14.852Z,0
2017-07-17T01:27:25.109Z,0
2017-07-17T01:28:35.055Z,0
2017-07-17T01:29:44.706Z,0
2017-07-17T01:30:55.276Z,0
2017-07-17T01:32:05.214Z,0
2017-07-17T01:33:15.170Z,0
2017-07-17T01:34:25.447Z,0
2017-07-17T01:35:35.089Z,0
2017-07-17T01:36:45.617Z,0
2017-07-17T01:37:55.896Z,0
2017-07-17T01:39:06.160Z,0
2017-07-17T01:40:16.105Z,0
2017-07-17T01:41:26.395Z,0
2017-07-17T01:42:36.971Z,0
2017-07-17T01:43:46.922Z,0
2017-07-17T01:44:57.177Z,0
2017-07-17T01:46:07.444Z,0
2017-07-17T01:47:17.702Z,0
2017-07-17T01:48:27.896Z,0
2017-07-17T01:49:38.179Z,0
2017-07-17T01:50:48.455Z,0
2017-07-17T01:51:58.723Z,0
2017-07-17T01:53:09.004Z,0
2017-07-17T01:54:19.542Z,0
2017-07-17T01:55:29.830Z,0
2017-07-17T01:56:39.782Z,0
2017-07-17T01:57:49.735Z,0
2017-07-17T01:58:59.382Z,0
2017-07-17T02:00:09.566Z,0
2017-07-17T02:01:19.832Z,0
2017-07-17T02:02:30.097Z,0
2017-07-17T02:03:40.358Z,0
2017-07-17T02:04:50.318Z,0
2017-07-17T02:06:00.835Z,0
2017-07-17T02:07:11.122Z,0
2017-07-17T02:08:21.388Z,0
2017-07-17T02:09:31.655Z,0
2017-07-17T02:10:41.753Z,0
2017-07-17T02:11:52.269Z,0
2017-07-17T02:13:02.558Z,0
2017-07-17T02:14:12.820Z,0
2017-07-17T02:15:23.088Z,0
2017-07-17T02:16:33.364Z,0
2017-07-17T02:17:43.896Z,0
2017-07-17T02:18:54.163Z,0
2017-07-17T02:20:04.448Z,0
2017-07-17T02:21:14.750Z,0
2017-07-17T02:22:25.010Z,0
2017-07-17T02:23:35.535Z,4
2017-07-17T02:24:45.497Z,4
2017-07-17T02:25:55.765Z,4
2017-07-17T02:27:05.720Z,0
2017-07-17T02:28:15.986Z,4
2017-07-17T02:29:26.497Z,4
2017-07-17T02:30:36.472Z,4
2017-07-17T02:31:46.725Z,4
2017-07-17T02:32:56.987Z,8
2017-07-17T02:34:06.944Z,8
2017-07-17T02:35:17.457Z,12
2017-07-17T02:36:27.556Z,12
2017-07-17T02:37:37.513Z,12
2017-07-17T02:38:47.775Z,8
2017-07-17T02:39:58.045Z,12
2017-07-17T02:41:08.234Z,16
2017-07-17T02:42:18.489Z,12
2017-07-17T02:43:28.757Z,12
2017-07-17T02:44:39.016Z,12
2017-07-17T02:45:49.271Z,20
2017-07-17T02:46:59.457Z,16
2017-07-17T02:48:09.445Z,16
2017-07-17T02:49:19.693Z,16
2017-07-17T02:50:29.974Z,20
2017-07-17T02:51:40.242Z,24
2017-07-17T02:52:50.781Z,28
2017-07-17T02:54:01.042Z,28
2017-07-17T02:55:11.306Z,24
2017-07-17T02:56:21.266Z,32
2017-07-17T02:57:31.221Z,40
2017-07-17T02:58:41.727Z,48
2017-07-17T02:59:52.008Z,48
2017-07-17T03:01:02.292Z,64
2017-07-17T03:02:11.911Z,92
2017-07-17T03:03:21.892Z,140
2017-07-17T03:04:32.418Z,176
2017-07-17T03:05:42.690Z,208
2017-07-17T03:06:52.966Z,248
2017-07-17T03:08:02.910Z,268
2017-07-17T03:09:13.167Z,260
2017-07-17T03:10:23.763Z,312
2017-07-17T03:11:34.038Z,336
2017-07-17T03:12:43.992Z,352
2017-07-17T03:13:53.939Z,356
2017-07-17T03:15:04.235Z,360
2017-07-17T03:16:14.742Z,340
2017-07-17T03:17:25.013Z,424
2017-07-17T03:18:35.294Z,480
2017-07-17T03:19:44.929Z,524
2017-07-17T03:20:54.575Z,564
2017-07-17T03:22:04.790Z,600
2017-07-17T03:23:15.039Z,632
2017-07-17T03:24:25.301Z,660
2017-07-17T03:25:35.556Z,664
2017-07-17T03:26:45.522Z,680
2017-07-17T03:27:55.733Z,728
2017-07-17T03:29:06.004Z,768
2017-07-17T03:30:16.280Z,780
2017-07-17T03:31:26.539Z,788
2017-07-17T03:32:36.782Z,756
2017-07-17T03:33:46.993Z,700
2017-07-17T03:34:56.938Z,684
2017-07-17T03:36:06.586Z,712
2017-07-17T03:37:16.914Z,588
2017-07-17T03:38:26.881Z,604
2017-07-17T03:39:37.071Z,940
2017-07-17T03:40:47.333Z,1288
2017-07-17T03:41:57.595Z,1480
2017-07-17T03:43:08.195Z,1544
2017-07-17T03:44:18.453Z,1756
2017-07-17T03:45:29.033Z,1728
2017-07-17T03:46:39.291Z,1760
2017-07-17T03:47:49.557Z,1988
2017-07-17T03:48:59.820Z,2244
2017-07-17T03:50:10.110Z,2408
2017-07-17T03:51:20.610Z,2564
2017-07-17T03:52:30.901Z,2744
2017-07-17T03:53:41.162Z,2876
2017-07-17T03:54:51.437Z,2944
2017-07-17T03:56:01.691Z,3036
2017-07-17T03:57:11.878Z,3124
2017-07-17T03:58:22.154Z,3232
2017-07-17T03:59:32.430Z,3340
2017-07-17T04:00:42.383Z,3408
2017-07-17T04:01:52.657Z,3476
2017-07-17T04:03:03.154Z,3552
2017-07-17T04:04:13.104Z,3644
2017-07-17T04:05:23.379Z,3728
2017-07-17T04:06:33.329Z,3840
2017-07-17T04:07:43.592Z,3976
2017-07-17T04:08:54.102Z,3980
2017-07-17T04:10:04.379Z,4084
2017-07-17T04:11:14.639Z,4152
2017-07-17T04:12:24.928Z,4352
2017-07-17T04:13:34.884Z,4504
2017-07-17T04:14:45.465Z,4536
2017-07-17T04:15:55.741Z,4900
2017-07-17T04:17:06.027Z,5064
2017-07-17T04:18:16.287Z,4852
2017-07-17T04:19:26.238Z,4612
2017-07-17T04:20:36.760Z,4180
2017-07-17T04:21:46.704Z,4348
2017-07-17T04:22:56.968Z,4436
2017-07-17T04:24:06.606Z,4320
2017-07-17T04:25:16.551Z,3880
2017-07-17T04:26:27.077Z,4008
2017-07-17T04:27:37.351Z,4248
2017-07-17T04:28:47.634Z,4780
2017-07-17T04:29:57.574Z,5080
2017-07-17T04:31:07.830Z,5072
2017-07-17T04:32:18.367Z,5232
2017-07-17T04:33:28.660Z,5388
2017-07-17T04:34:38.946Z,5396
2017-07-17T04:35:48.906Z,5628
2017-07-17T04:36:59.175Z,5696
2017-07-17T04:38:09.681Z,5436
2017-07-17T04:39:19.971Z,5392
2017-07-17T04:40:30.241Z,5432
2017-07-17T04:41:40.206Z,5428
2017-07-17T04:42:50.481Z,6212
2017-07-17T04:44:00.997Z,6164
2017-07-17T04:45:10.951Z,5824
2017-07-17T04:46:20.923Z,6088
2017-07-17T04:47:30.899Z,6284
2017-07-17T04:48:41.180Z,6448
2017-07-17T04:49:51.389Z,6436
2017-07-17T04:51:01.345Z,6700
2017-07-17T04:52:11.293Z,6920
2017-07-17T04:53:21.561Z,6776
2017-07-17T04:54:31.877Z,7208
2017-07-17T04:55:42.124Z,7952
2017-07-17T04:56:52.079Z,7828
2017-07-17T04:58:02.360Z,7900
2017-07-17T04:59:12.632Z,8012
2017-07-17T05:00:22.896Z,9348
2017-07-17T05:01:33.414Z,11324
2017-07-17T05:02:43.673Z,11988
2017-07-17T05:03:53.948Z,11300
2017-07-17T05:05:03.902Z,10580
2017-07-17T05:06:14.183Z,12644
2017-07-17T05:07:24.379Z,11476
2017-07-17T05:08:34.013Z,10908
2017-07-17T05:09:43.649Z,11568
2017-07-17T05:10:53.622Z,13080
2017-07-17T05:12:03.893Z,13156
2017-07-17T05:13:14.413Z,12088
2017-07-17T05:14:24.681Z,11900
2017-07-17T05:15:34.011Z,10944
2017-07-17T05:16:44.280Z,13076
2017-07-17T05:17:54.569Z,13716
2017-07-17T05:19:05.079Z,12180
2017-07-17T05:20:15.352Z,12452
2017-07-17T05:21:25.616Z,12820
2017-07-17T05:22:35.882Z,13448
2017-07-17T05:23:46.159Z,14888
2017-07-17T05:24:56.712Z,15000
2017-07-17T05:26:06.981Z,12616
2017-07-17T05:27:17.238Z,11596
2017-07-17T05:28:27.542Z,11128
2017-07-17T05:29:37.517Z,11028
2017-07-17T05:30:48.092Z,11440
2017-07-17T05:31:58.364Z,11404
2017-07-17T05:33:08.359Z,11944
2017-07-17T05:34:18.314Z,12976
2017-07-17T05:35:28.621Z,13156
2017-07-17T05:36:39.128Z,12224
2017-07-17T05:37:48.770Z,11556
2017-07-17T05:38:58.751Z,11304
2017-07-17T05:40:08.689Z,11056
2017-07-17T05:41:18.996Z,10708
2017-07-17T05:42:29.765Z,11320
2017-07-17T05:43:39.714Z,11364
2017-07-17T05:44:49.693Z,11392
2017-07-17T05:46:00.020Z,11308
2017-07-17T05:47:10.343Z,12700
2017-07-17T05:48:20.874Z,15184
2017-07-17T05:49:30.891Z,15760
2017-07-17T05:50:40.833Z,15564
2017-07-17T05:51:50.475Z,13024
2017-07-17T05:53:00.740Z,12428
2017-07-17T05:54:10.988Z,13912
2017-07-17T05:55:20.973Z,12400
2017-07-17T05:56:31.239Z,12552
2017-07-17T05:57:41.491Z,12380
2017-07-17T05:58:51.766Z,12992
2017-07-17T06:00:02.288Z,14896
2017-07-17T06:01:11.925Z,17856
2017-07-17T06:02:22.195Z,19680
2017-07-17T06:03:32.509Z,16852
2017-07-17T06:04:42.163Z,17536
2017-07-17T06:05:52.683Z,18912
2017-07-17T06:07:02.957Z,20224
2017-07-17T06:08:13.262Z,17568
2017-07-17T06:09:23.537Z,16932
2017-07-17T06:10:33.533Z,17952
2017-07-17T06:11:43.763Z,18720
2017-07-17T06:12:54.027Z,16580
2017-07-17T06:14:04.299Z,13264
2017-07-17T06:15:14.825Z,12720
2017-07-17T06:16:25.102Z,12500
2017-07-17T06:17:35.315Z,11400
2017-07-17T06:18:45.613Z,10836
2017-07-17T06:19:55.602Z,10120
2017-07-17T06:21:05.595Z,10316
2017-07-17T06:22:15.883Z,10608
2017-07-17T06:23:26.434Z,10884
2017-07-17T06:24:36.701Z,12056
2017-07-17T06:25:46.674Z,14388
2017-07-17T06:26:56.642Z,15228
2017-07-17T06:28:06.926Z,15628
2017-07-17T06:29:17.509Z,15668
2017-07-17T06:30:27.799Z,15380
2017-07-17T06:31:37.765Z,15972
2017-07-17T06:32:48.057Z,16292
2017-07-17T06:33:58.021Z,15920
2017-07-17T06:35:08.565Z,15708
2017-07-17T06:36:18.861Z,15936
2017-07-17T06:37:29.127Z,15832
2017-07-17T06:38:39.396Z,16688
2017-07-17T06:39:49.662Z,15200
2017-07-17T06:41:00.166Z,14480
2017-07-17T06:42:10.456Z,14060
2017-07-17T06:43:20.750Z,13824
2017-07-17T06:44:31.031Z,14308
2017-07-17T06:45:40.358Z,14236
2017-07-17T06:46:50.878Z,14892
2017-07-17T06:48:01.169Z,16112
2017-07-17T06:49:11.454Z,16180
2017-07-17T06:50:21.089Z,14972
2017-07-17T06:51:31.035Z,14236
2017-07-17T06:52:41.296Z,14684
2017-07-17T06:53:51.609Z,14996
2017-07-17T06:55:01.571Z,16336
2017-07-17T06:56:11.846Z,17536
2017-07-17T06:57:21.810Z,19392
2017-07-17T06:58:32.340Z,21056
2017-07-17T06:59:42.615Z,22016
2017-07-17T07:00:52.889Z,22560
2017-07-17T07:02:02.738Z,21280
2017-07-17T07:03:13.028Z,21056
2017-07-17T07:04:23.233Z,20736
2017-07-17T07:05:33.207Z,20416
2017-07-17T07:06:43.178Z,19744
2017-07-17T07:07:53.462Z,19584
2017-07-17T07:09:03.724Z,19328
2017-07-17T07:10:14.269Z,19808
2017-07-17T07:11:24.237Z,20384
2017-07-17T07:12:34.509Z,20672
2017-07-17T07:13:44.781Z,19808
2017-07-17T07:14:55.056Z,18368
2017-07-17T07:16:05.258Z,18272
2017-07-17T07:17:15.228Z,22688
2017-07-17T07:18:25.202Z,23808
2017-07-17T07:19:35.488Z,22240
2017-07-17T07:20:45.793Z,18912
2017-07-17T07:21:56.012Z,18592
2017-07-17T07:23:06.284Z,20320
2017-07-17T07:24:16.570Z,21312
2017-07-17T07:25:26.848Z,20704
2017-07-17T07:26:37.133Z,19936
2017-07-17T07:27:47.682Z,21536
2017-07-17T07:28:57.956Z,22080
2017-07-17T07:30:08.236Z,22688
2017-07-17T07:31:18.497Z,21728
2017-07-17T07:32:28.769Z,21888
2017-07-17T07:33:39.279Z,21120
2017-07-17T07:34:49.569Z,21280
2017-07-17T07:35:59.880Z,21664
2017-07-17T07:37:10.152Z,21952
2017-07-17T07:38:20.333Z,21408
2017-07-17T07:39:30.902Z,20160
2017-07-17T07:40:41.204Z,19680
2017-07-17T07:41:51.479Z,21280
2017-07-17T07:43:01.117Z,22272
2017-07-17T07:44:11.394Z,22400
2017-07-17T07:45:21.612Z,21472
2017-07-17T07:46:31.883Z,19872
2017-07-17T07:47:42.158Z,19264
2017-07-17T07:48:52.446Z,18848
2017-07-17T07:50:02.410Z,19264
2017-07-17T07:51:12.625Z,20480
2017-07-17T07:52:22.889Z,20256
2017-07-17T07:53:32.882Z,19008
2017-07-17T07:54:42.846Z,17500
2017-07-17T07:55:52.794Z,16308
2017-07-17T07:57:03.318Z,15044
2017-07-17T07:58:13.268Z,14300
2017-07-17T07:59:23.132Z,14056
2017-07-17T08:00:33.087Z,14528
2017-07-17T08:01:43.031Z,14672
2017-07-17T08:02:53.591Z,14952
2017-07-17T08:04:03.867Z,15336
2017-07-17T08:05:13.834Z,15984
2017-07-17T08:06:24.125Z,16800
2017-07-17T08:07:34.394Z,18100
2017-07-17T08:08:44.609Z,19872
2017-07-17T08:09:54.586Z,21312
2017-07-17T08:11:04.866Z,23392
2017-07-17T08:12:15.149Z,22528
2017-07-17T08:13:25.401Z,23040
2017-07-17T08:14:35.365Z,24960
2017-07-17T08:15:45.633Z,27488
2017-07-17T08:16:55.586Z,28992
2017-07-17T08:18:05.873Z,26368
2017-07-17T08:19:16.163Z,22528
2017-07-17T08:20:26.385Z,20864
2017-07-17T08:21:36.666Z,19232
2017-07-17T08:22:46.952Z,16652
2017-07-17T08:23:56.908Z,15080
2017-07-17T08:25:07.177Z,13996
2017-07-17T08:26:17.733Z,14276
2017-07-17T08:27:27.690Z,15156
2017-07-17T08:28:37.900Z,14852
2017-07-17T08:29:47.844Z,14724
2017-07-17T08:30:57.852Z,14700
2017-07-17T08:32:08.390Z,15016
2017-07-17T08:33:18.356Z,15416
2017-07-17T08:34:28.639Z,15984
2017-07-17T08:35:39.115Z,16676
2017-07-17T08:36:49.414Z,17480
2017-07-17T08:37:59.976Z,32480
2017-07-17T08:39:10.241Z,59616
2017-07-17T08:40:20.516Z,64416
2017-07-17T08:41:30.472Z,66432
2017-07-17T08:42:40.763Z,68736
2017-07-17T08:43:50.642Z,69856
2017-07-17T08:45:00.911Z,69184
2017-07-17T08:46:11.199Z,71072
2017-07-17T08:47:21.515Z,19840
2017-07-17T08:48:31.796Z,33568
2017-07-17T08:49:42.016Z,69728
2017-07-17T08:50:52.303Z,74304
2017-07-17T08:52:02.585Z,74816
2017-07-17T08:53:12.545Z,77888
2017-07-17T08:54:22.514Z,79744
2017-07-17T08:55:32.742Z,77280
2017-07-17T08:56:42.811Z,53120
2017-07-17T08:57:53.082Z,21472
2017-07-17T08:59:03.367Z,20224
2017-07-17T09:00:13.659Z,19456
2017-07-17T09:01:24.209Z,18408
2017-07-17T09:02:34.482Z,18672
2017-07-17T09:03:44.154Z,71200
2017-07-17T09:04:54.451Z,72896
2017-07-17T09:06:04.732Z,76480
2017-07-17T09:07:14.948Z,80000
2017-07-17T09:08:25.238Z,78080
2017-07-17T09:09:34.935Z,74368
2017-07-17T09:10:45.232Z,54272
2017-07-17T09:11:55.501Z,71904
2017-07-17T09:13:05.117Z,41472
2017-07-17T09:14:14.755Z,73184
2017-07-17T09:15:24.393Z,66816
2017-07-17T09:16:34.687Z,70048
2017-07-17T09:17:45.072Z,70880
2017-07-17T09:18:55.621Z,70048
2017-07-17T09:20:05.911Z,74432
2017-07-17T09:21:15.555Z,76896
2017-07-17T09:22:25.198Z,75360
2017-07-17T09:23:35.490Z,76640
2017-07-17T09:24:46.076Z,76768
2017-07-17T09:25:55.741Z,75008
2017-07-17T09:27:06.029Z,75104
2017-07-17T09:28:16.313Z,78816
2017-07-17T09:29:26.278Z,78304
2017-07-17T09:30:36.803Z,77024
2017-07-17T09:31:47.084Z,73632
2017-07-17T09:32:57.362Z,74656
2017-07-17T09:34:07.648Z,81376
2017-07-17T09:35:17.307Z,80000
2017-07-17T09:36:27.880Z,80736
2017-07-17T09:37:38.171Z,81760
2017-07-17T09:38:47.831Z,81664
2017-07-17T09:39:57.807Z,82112
2017-07-17T09:41:08.085Z,83616
2017-07-17T09:42:18.604Z,91296
2017-07-17T09:43:28.565Z,84064
2017-07-17T09:44:38.196Z,86944
2017-07-17T09:45:48.477Z,88512
2017-07-17T09:46:58.777Z,84864
2017-07-17T09:48:09.302Z,26912
2017-07-17T09:49:18.974Z,90592
2017-07-17T09:50:28.938Z,90368
2017-07-17T09:51:38.890Z,87104
2017-07-17T09:52:49.182Z,89824
2017-07-17T09:53:59.110Z,97504
2017-07-17T09:55:09.112Z,88544
2017-07-17T09:56:19.136Z,95744
2017-07-17T09:57:29.463Z,94496
2017-07-17T09:58:39.762Z,92832
2017-07-17T09:59:50.322Z,94336
2017-07-17T10:01:00.286Z,97664
2017-07-17T10:02:10.571Z,98720
2017-07-17T10:03:20.215Z,93472
2017-07-17T10:04:30.502Z,91584
2017-07-17T10:05:41.061Z,98144
2017-07-17T10:06:51.356Z,96832
2017-07-17T10:08:01.662Z,95936
2017-07-17T10:09:11.626Z,95008
2017-07-17T10:10:21.640Z,98560
2017-07-17T10:11:32.247Z,100608
2017-07-17T10:12:42.536Z,97120
2017-07-17T10:13:52.813Z,98560
2017-07-17T10:15:02.475Z,108032
2017-07-17T10:16:12.760Z,107392
2017-07-17T10:17:23.049Z,91808
2017-07-17T10:18:33.352Z,97408
2017-07-17T10:19:43.640Z,124512
2017-07-17T10:20:53.918Z,125408
2017-07-17T10:22:04.205Z,92544
2017-07-17T10:23:14.726Z,99424
2017-07-17T10:24:25.023Z,109888
2017-07-17T10:25:35.313Z,103232
2017-07-17T10:26:45.594Z,112672
2017-07-17T10:27:55.939Z,111808
2017-07-17T10:29:06.152Z,73408
2017-07-17T10:30:15.808Z,118240
2017-07-17T10:31:25.786Z,118592
2017-07-17T10:32:36.067Z,120800
2017-07-17T10:33:46.024Z,114720
2017-07-17T10:34:56.257Z,121376
2017-07-17T10:36:06.560Z,124192
2017-07-17T10:37:16.858Z,126496
2017-07-17T10:38:26.837Z,128832
2017-07-17T10:39:37.131Z,120768
2017-07-17T10:40:47.708Z,113952
2017-07-17T10:41:58.047Z,127424
2017-07-17T10:43:08.341Z,121632
2017-07-17T10:44:18.334Z,111168
2017-07-17T10:45:28.644Z,106016
2017-07-17T10:46:38.867Z,118112
2017-07-17T10:47:48.828Z,120576
2017-07-17T10:48:58.795Z,117024
2017-07-17T10:50:08.771Z,115392
2017-07-17T10:51:18.765Z,122208
2017-07-17T10:52:29.358Z,125312
2017-07-17T10:53:39.646Z,121984
2017-07-17T10:54:49.601Z,126432
2017-07-17T10:55:59.902Z,108096
2017-07-17T10:57:09.879Z,128288
2017-07-17T10:58:20.418Z,111520
2017-07-17T10:59:30.690Z,69344
2017-07-17T11:00:40.349Z,58016
2017-07-17T11:01:50.636Z,82816
2017-07-17T11:03:00.927Z,123456
2017-07-17T11:04:11.453Z,124000
2017-07-17T11:05:21.085Z,131456
2017-07-17T11:06:30.770Z,133152
2017-07-17T11:07:40.746Z,131296
2017-07-17T11:08:51.041Z,125216
2017-07-17T11:10:01.248Z,120704
2017-07-17T11:11:11.217Z,122880
2017-07-17T11:12:21.186Z,133888
2017-07-17T11:13:31.551Z,123520
2017-07-17T11:14:41.849Z,127936
2017-07-17T11:15:52.444Z,132480
2017-07-17T11:17:01.787Z,125696
2017-07-17T11:18:12.107Z,132288
2017-07-17T11:19:22.069Z,118272
2017-07-17T11:20:32.365Z,135136
2017-07-17T11:21:42.893Z,42240
2017-07-17T11:22:52.539Z,137920
2017-07-17T11:24:02.813Z,143360
2017-07-17T11:25:12.772Z,35200
2017-07-17T11:26:23.105Z,132512
2017-07-17T11:27:33.348Z,137408
2017-07-17T11:28:42.997Z,132704
2017-07-17T11:29:53.279Z,133376
2017-07-17T11:31:03.578Z,136384
2017-07-17T11:32:13.610Z,132704
2017-07-17T11:33:23.522Z,55296
2017-07-17T11:34:33.800Z,135328
2017-07-17T11:35:43.783Z,127520
2017-07-17T11:36:53.758Z,76704
2017-07-17T11:38:03.744Z,118368
2017-07-17T11:39:14.023Z,142592
2017-07-17T11:40:23.989Z,144032
2017-07-17T11:41:33.972Z,151840
2017-07-17T11:42:43.612Z,159520
2017-07-17T11:43:53.587Z,131584
2017-07-17T11:45:04.128Z,77024
2017-07-17T11:56:18.715Z,77696
2017-07-17T11:58:37.229Z,158144
2017-07-17T11:59:47.208Z,163712
2017-07-17T12:00:57.182Z,65056
2017-07-17T12:02:07.092Z,50976
2017-07-17T12:03:17.400Z,118656
2017-07-17T12:04:27.683Z,59232
2017-07-17T12:06:46.510Z,45888
2017-07-17T12:07:57.073Z,45472
2017-07-17T12:09:06.426Z,42976
2017-07-17T12:10:16.720Z,44736
2017-07-17T12:11:27.039Z,57440
2017-07-17T12:12:37.338Z,161440
2017-07-17T12:13:47.558Z,82272
2017-07-17T12:14:57.522Z,130208
2017-07-17T12:16:07.815Z,142144
2017-07-17T12:17:18.111Z,151424
2017-07-17T12:18:28.406Z,145600
2017-07-17T12:19:38.646Z,149152
2017-07-17T12:20:48.916Z,106752
2017-07-17T12:21:59.197Z,143136
2017-07-17T12:23:09.540Z,152896
2017-07-17T12:24:19.852Z,157248
2017-07-17T12:25:30.093Z,152032
2017-07-17T12:26:40.074Z,68768
2017-07-17T12:27:50.374Z,54880
2017-07-17T12:29:00.368Z,50880
2017-07-17T12:30:10.706Z,154464
2017-07-17T12:31:21.295Z,152064
2017-07-17T12:32:30.980Z,112576
2017-07-17T12:33:41.279Z,54208
2017-07-17T12:34:51.256Z,164352
2017-07-17T12:36:01.554Z,160640
2017-07-17T12:37:11.795Z,61120
2017-07-17T12:38:22.105Z,51904
2017-07-17T12:39:32.387Z,54912
2017-07-17T12:40:42.048Z,148000
2017-07-17T12:41:52.046Z,141664
2017-07-17T12:43:02.599Z,146784
2017-07-17T12:44:12.901Z,135232
2017-07-17T12:45:23.192Z,53664
2017-07-17T12:46:32.841Z,145120
2017-07-17T12:47:43.143Z,129152
2017-07-17T12:48:53.383Z,75072
2017-07-17T12:50:03.695Z,35456
2017-07-17T12:51:14.029Z,152384
2017-07-17T12:52:24.023Z,39968
2017-07-17T12:53:34.312Z,45216
2017-07-17T12:54:44.854Z,151520
2017-07-17T12:55:55.150Z,152480
2017-07-17T12:57:05.482Z,159616
2017-07-17T12:58:15.790Z,44064
2017-07-17T12:59:26.094Z,128896
2017-07-17T13:00:36.631Z,145376
2017-07-17T13:01:46.900Z,125824
2017-07-17T13:02:57.191Z,46944
2017-07-17T13:04:07.501Z,129664
2017-07-17T13:05:17.474Z,114240
2017-07-17T13:06:27.369Z,131840
2017-07-17T13:07:37.673Z,42048
2017-07-17T13:08:47.977Z,136832
2017-07-17T13:09:57.979Z,139776
2017-07-17T13:11:07.332Z,153440
2017-07-17T13:12:17.624Z,153984
2017-07-17T13:13:27.617Z,71872
2017-07-17T13:14:37.924Z,121280
2017-07-17T13:15:48.228Z,44480
2017-07-17T13:16:58.226Z,52448
2017-07-17T13:18:08.792Z,51104
2017-07-17T13:19:18.164Z,135136
2017-07-17T13:20:28.152Z,135936
2017-07-17T13:21:37.815Z,143552
2017-07-17T13:22:48.094Z,137280
2017-07-17T13:23:58.656Z,62368
2017-07-17T13:25:08.969Z,141792
2017-07-17T13:26:19.273Z,141920
2017-07-17T13:27:29.598Z,119744
2017-07-17T13:28:39.572Z,135776
2017-07-17T13:29:50.113Z,138240
2017-07-17T13:31:00.398Z,96352
2017-07-17T13:32:10.682Z,138368
2017-07-17T13:33:20.996Z,96192
2017-07-17T13:34:31.305Z,118048
2017-07-17T13:35:41.838Z,138976
2017-07-17T13:36:52.154Z,131744
2017-07-17T13:38:02.459Z,132960
2017-07-17T13:39:12.661Z,138400
2017-07-17T13:40:22.661Z,144320
2017-07-17T13:41:32.898Z,34304
2017-07-17T13:42:42.880Z,131744
2017-07-17T13:43:53.176Z,134272
2017-07-17T13:45:03.449Z,133216
2017-07-17T13:46:13.457Z,130624
2017-07-17T13:47:23.681Z,129056
2017-07-17T13:48:33.984Z,126720
2017-07-17T13:49:44.313Z,128704
2017-07-17T13:50:54.317Z,136832
2017-07-17T13:52:03.991Z,135680
2017-07-17T13:53:14.545Z,133792
2017-07-17T13:54:24.520Z,134880
2017-07-17T13:55:34.846Z,137216
2017-07-17T13:56:45.140Z,133952
2017-07-17T13:57:55.119Z,48096
2017-07-17T13:59:05.362Z,101824
2017-07-17T14:00:15.697Z,143136
2017-07-17T14:01:25.986Z,75552
2017-07-17T14:02:35.679Z,137856
2017-07-17T14:03:45.694Z,46464
2017-07-17T14:04:56.292Z,122976
2017-07-17T14:06:06.602Z,132960
2017-07-17T14:07:16.904Z,135584
2017-07-17T14:08:27.225Z,127424
2017-07-17T14:09:37.522Z,118144
2017-07-17T14:10:47.800Z,117344
2017-07-17T14:11:58.119Z,114272
2017-07-17T14:13:08.124Z,117536
2017-07-17T14:14:18.450Z,117920
2017-07-17T14:15:28.758Z,120576
2017-07-17T14:16:38.995Z,122720
2017-07-17T14:17:48.976Z,123008
2017-07-17T14:18:59.266Z,120192
2017-07-17T14:20:09.565Z,116224
2017-07-17T14:21:19.564Z,117760
2017-07-17T14:22:30.100Z,123872
2017-07-17T14:23:40.402Z,127040
2017-07-17T14:24:50.691Z,127904
2017-07-17T14:26:00.676Z,127360
2017-07-17T14:27:10.663Z,120704
2017-07-17T14:28:20.892Z,125504
2017-07-17T14:29:31.192Z,123648
2017-07-17T14:30:41.483Z,120000
2017-07-17T14:31:51.769Z,122272
2017-07-17T14:33:01.746Z,110656
2017-07-17T14:34:12.325Z,122144
2017-07-17T14:35:22.640Z,121024
2017-07-17T14:36:32.939Z,31904
2017-07-17T14:37:42.718Z,131296
2017-07-17T14:38:52.691Z,123168
2017-07-17T14:40:03.233Z,121632
2017-07-17T14:41:13.226Z,126336
2017-07-17T14:42:23.547Z,131104
2017-07-17T14:43:33.830Z,41312
2017-07-17T14:44:44.240Z,122560
2017-07-17T14:45:54.479Z,116352
2017-07-17T14:47:04.789Z,117696
2017-07-17T14:48:14.785Z,80960
2017-07-17T14:49:24.762Z,127872
2017-07-17T14:50:34.750Z,35936
2017-07-17T14:51:44.997Z,117280
2017-07-17T14:52:54.699Z,122144
2017-07-17T14:54:04.373Z,122048
2017-07-17T14:55:14.652Z,122112
2017-07-17T14:56:24.651Z,126336
2017-07-17T14:57:35.210Z,125056
2017-07-17T14:58:44.882Z,119616
2017-07-17T14:59:54.853Z,117632
2017-07-17T15:01:05.144Z,119616
2017-07-17T15:02:14.828Z,123264
2017-07-17T15:03:25.360Z,120128
2017-07-17T15:04:35.340Z,117472
2017-07-17T15:05:45.623Z,119616
2017-07-17T15:06:55.628Z,119936
2017-07-17T15:08:05.929Z,119552
2017-07-17T15:09:16.470Z,115744
2017-07-17T15:10:26.794Z,119552
2017-07-17T15:11:36.779Z,34720
2017-07-17T15:12:47.081Z,115488
2017-07-17T15:13:57.068Z,114592
2017-07-17T15:15:07.621Z,116224
2017-07-17T15:16:17.931Z,113888
2017-07-17T15:17:28.246Z,110592
2017-07-17T15:18:38.229Z,32192
2017-07-17T15:19:48.509Z,44960
2017-07-17T15:20:58.755Z,104224
2017-07-17T15:22:09.066Z,104544
2017-07-17T15:23:19.368Z,108352
2017-07-17T15:24:30.207Z,27072
2017-07-17T15:25:40.514Z,29632
2017-07-17T15:26:51.042Z,25728
2017-07-17T15:28:01.341Z,26400
2017-07-17T15:29:11.355Z,63584
2017-07-17T15:30:21.653Z,104800
2017-07-17T15:31:31.945Z,105408
2017-07-17T15:32:42.177Z,43008
2017-07-17T15:33:52.489Z,27776
2017-07-17T15:35:02.778Z,24640
2017-07-17T15:36:13.079Z,24352